createdAt,value
2018-11-27T00:00:01.429Z,18.27
2018-11-27T00:01:01.521Z,18.28
2018-11-27T00:02:01.472Z,18.28
2018-11-27T00:03:01.931Z,18.28
2018-11-27T00:04:01.284Z,18.26
2018-11-27T00:05:01.809Z,18.26
2018-11-27T00:06:01.671Z,18.26
2018-11-27T00:07:01.379Z,18.27
2018-11-27T00:08:01.411Z,18.26
2018-11-27T00:09:01.373Z,18.25
2018-11-27T00:10:01.614Z,18.27
2018-11-27T00:11:01.315Z,18.25
2018-11-27T00:12:01.502Z,18.26
2018-11-27T00:13:01.833Z,18.25
2018-11-27T00:14:01.847Z,18.25
2018-11-27T00:15:01.643Z,18.24
2018-11-27T00:16:01.528Z,18.24
2018-11-27T00:17:01.863Z,18.25
2018-11-27T00:18:01.416Z,18.25
2018-11-27T00:19:01.818Z,18.26
2018-11-27T00:20:01.408Z,18.25
2018-11-27T00:21:01.416Z,18.22
2018-11-27T00:22:01.267Z,18.24
2018-11-27T00:23:01.403Z,18.22
2018-11-27T00:24:01.541Z,18.24
2018-11-27T00:25:01.328Z,18.22
2018-11-27T00:26:01.760Z,18.24
2018-11-27T00:27:01.348Z,18.22
2018-11-27T00:28:01.794Z,18.22
2018-11-27T00:29:02.158Z,18.22
2018-11-27T00:30:01.727Z,18.22
2018-11-27T00:31:01.366Z,18.2
2018-11-27T00:32:01.687Z,18.22
2018-11-27T00:33:01.843Z,18.21
2018-11-27T00:34:01.715Z,18.2
2018-11-27T00:35:01.788Z,18.2
2018-11-27T00:36:01.585Z,18.22
2018-11-27T00:37:01.373Z,18.19
2018-11-27T00:38:01.459Z,18.21
2018-11-27T00:39:01.630Z,18.21
2018-11-27T00:40:01.736Z,18.2
2018-11-27T00:41:01.393Z,18.21
2018-11-27T00:42:01.728Z,18.2
2018-11-27T00:43:01.412Z,18.18
2018-11-27T00:44:01.967Z,18.19
2018-11-27T00:45:01.375Z,18.19
2018-11-27T00:46:01.341Z,18.18
2018-11-27T00:47:01.247Z,18.21
2018-11-27T00:48:01.505Z,18.19
2018-11-27T00:49:01.392Z,18.18
2018-11-27T00:50:01.341Z,18.18
2018-11-27T00:51:01.516Z,18.19
2018-11-27T00:52:01.348Z,18.17
2018-11-27T00:53:01.833Z,18.18
2018-11-27T00:54:01.296Z,18.17
2018-11-27T00:55:01.466Z,18.14
2018-11-27T00:56:01.300Z,18.17
2018-11-27T00:57:01.323Z,18.15
2018-11-27T00:58:01.222Z,18.15
2018-11-27T00:59:01.421Z,18.15
2018-11-27T01:00:01.415Z,18.17
2018-11-27T01:01:01.413Z,18.17
2018-11-27T01:02:01.741Z,18.17
2018-11-27T01:03:01.666Z,18.14
2018-11-27T01:04:01.412Z,18.15
2018-11-27T01:05:01.291Z,18.15
2018-11-27T01:06:01.458Z,18.13
2018-11-27T01:07:01.660Z,18.14
2018-11-27T01:08:01.393Z,18.14
2018-11-27T01:09:01.268Z,18.13
2018-11-27T01:10:01.337Z,18.13
2018-11-27T01:11:01.651Z,18.12
2018-11-27T01:12:01.422Z,18.12
2018-11-27T01:13:01.833Z,18.12
2018-11-27T01:14:01.517Z,18.11
2018-11-27T01:15:01.365Z,18.13
2018-11-27T01:16:02.308Z,18.12
2018-11-27T01:17:01.406Z,18.09
2018-11-27T01:18:01.775Z,18.12
2018-11-27T01:19:01.548Z,18.12
2018-11-27T01:20:01.481Z,18.12
2018-11-27T01:21:01.352Z,18.11
2018-11-27T01:22:01.366Z,18.12
2018-11-27T01:23:01.343Z,18.11
2018-11-27T01:24:01.410Z,18.11
2018-11-27T01:25:01.511Z,18.09
2018-11-27T01:26:02.276Z,18.09
2018-11-27T01:27:01.337Z,18.12
2018-11-27T01:28:01.920Z,18.1
2018-11-27T01:29:01.368Z,18.08
2018-11-27T01:30:01.316Z,18.11
2018-11-27T01:31:01.409Z,18.1
2018-11-27T01:32:01.825Z,18.09
2018-11-27T01:33:01.422Z,18.09
2018-11-27T01:34:01.467Z,18.08
2018-11-27T01:35:01.907Z,18.09
2018-11-27T01:36:01.631Z,18.09
2018-11-27T01:37:01.267Z,18.08
2018-11-27T01:38:01.280Z,18.09
2018-11-27T01:39:01.314Z,18.1
2018-11-27T01:40:01.512Z,18.09
2018-11-27T01:41:01.748Z,18.09
2018-11-27T01:42:01.385Z,18.08
2018-11-27T01:43:01.266Z,18.08
2018-11-27T01:44:01.313Z,18.07
2018-11-27T01:45:02.305Z,18.07
2018-11-27T01:46:01.372Z,18.07
2018-11-27T01:47:01.315Z,18.06
2018-11-27T01:48:01.493Z,18.08
2018-11-27T01:49:01.405Z,18.08
2018-11-27T01:50:01.388Z,18.09
2018-11-27T01:51:01.342Z,18.09
2018-11-27T01:52:01.653Z,18.06
2018-11-27T01:53:01.653Z,18.08
2018-11-27T01:54:01.468Z,18.07
2018-11-27T01:55:01.298Z,18.07
2018-11-27T01:56:01.308Z,18.04
2018-11-27T01:57:01.269Z,18.07
2018-11-27T01:58:01.368Z,18.07
2018-11-27T01:59:01.385Z,18.04
2018-11-27T02:00:01.746Z,18.07
2018-11-27T02:01:01.581Z,18.06
2018-11-27T02:02:01.341Z,18.06
2018-11-27T02:03:02.126Z,18.06
2018-11-27T02:04:01.425Z,18.05
2018-11-27T02:05:01.786Z,18.05
2018-11-27T02:06:01.733Z,18.05
2018-11-27T02:07:01.129Z,18.03
2018-11-27T02:08:01.536Z,18.04
2018-11-27T02:09:01.731Z,18.04
2018-11-27T02:10:01.287Z,18.04
2018-11-27T02:11:01.487Z,18.03
2018-11-27T02:12:01.711Z,18.04
2018-11-27T02:13:01.764Z,18.05
2018-11-27T02:14:01.832Z,18.04
2018-11-27T02:15:01.492Z,18.03
2018-11-27T02:16:01.498Z,18.03
2018-11-27T02:17:01.345Z,18.03
2018-11-27T02:18:01.272Z,18.05
2018-11-27T02:19:01.517Z,18.03
2018-11-27T02:20:01.369Z,18.02
2018-11-27T02:21:01.522Z,18.02
2018-11-27T02:22:01.486Z,18.04
2018-11-27T02:23:01.379Z,18.02
2018-11-27T02:24:01.313Z,18.03
2018-11-27T02:25:01.726Z,18
2018-11-27T02:26:01.323Z,18.04
2018-11-27T02:27:01.310Z,18.03
2018-11-27T02:28:01.424Z,18.02
2018-11-27T02:29:01.448Z,18.02
2018-11-27T02:30:01.603Z,17.99
2018-11-27T02:31:01.410Z,18.02
2018-11-27T02:32:01.380Z,17.99
2018-11-27T02:33:01.393Z,17.99
2018-11-27T02:34:01.416Z,18
2018-11-27T02:35:01.208Z,17.99
2018-11-27T02:36:01.316Z,18
2018-11-27T02:37:01.712Z,17.99
2018-11-27T02:38:01.356Z,17.99
2018-11-27T02:39:01.448Z,17.98
2018-11-27T02:40:01.364Z,17.98
2018-11-27T02:41:02.002Z,17.97
2018-11-27T02:42:01.529Z,17.98
2018-11-27T02:43:01.835Z,17.97
2018-11-27T02:44:01.264Z,17.98
2018-11-27T02:45:01.322Z,17.99
2018-11-27T02:46:01.170Z,17.98
2018-11-27T02:47:01.348Z,17.96
2018-11-27T02:48:01.515Z,17.99
2018-11-27T02:49:01.622Z,17.96
2018-11-27T02:50:01.501Z,17.96
2018-11-27T02:51:02.160Z,17.98
2018-11-27T02:52:01.750Z,17.97
2018-11-27T02:53:01.239Z,17.96
2018-11-27T02:54:01.489Z,17.95
2018-11-27T02:55:01.751Z,17.97
2018-11-27T02:56:01.680Z,17.96
2018-11-27T02:57:01.762Z,17.97
2018-11-27T02:58:01.507Z,17.97
2018-11-27T02:59:01.397Z,17.96
2018-11-27T03:00:01.314Z,17.95
2018-11-27T03:01:01.534Z,17.97
2018-11-27T03:02:01.213Z,17.97
2018-11-27T03:03:01.361Z,17.97
2018-11-27T03:04:01.921Z,17.94
2018-11-27T03:05:01.570Z,17.94
2018-11-27T03:06:01.379Z,17.95
2018-11-27T03:07:01.371Z,17.95
2018-11-27T03:08:02.399Z,17.96
2018-11-27T03:09:01.228Z,17.96
2018-11-27T03:10:01.836Z,17.95
2018-11-27T03:11:01.204Z,17.95
2018-11-27T03:12:01.559Z,17.94
2018-11-27T03:13:01.515Z,17.93
2018-11-27T03:14:01.734Z,17.95
2018-11-27T03:15:01.728Z,17.95
2018-11-27T03:16:01.582Z,17.95
2018-11-27T03:17:01.409Z,17.95
2018-11-27T03:18:01.561Z,17.93
2018-11-27T03:19:01.731Z,17.93
2018-11-27T03:20:01.268Z,17.94
2018-11-27T03:21:01.374Z,17.93
2018-11-27T03:22:01.502Z,17.92
2018-11-27T03:23:01.264Z,17.91
2018-11-27T03:24:01.663Z,17.91
2018-11-27T03:25:01.223Z,17.92
2018-11-27T03:26:01.737Z,17.92
2018-11-27T03:27:01.395Z,17.92
2018-11-27T03:28:01.682Z,17.93
2018-11-27T03:29:01.251Z,17.94
2018-11-27T03:30:01.507Z,17.92
2018-11-27T03:31:01.400Z,17.92
2018-11-27T03:32:01.492Z,17.89
2018-11-27T03:33:01.539Z,17.9
2018-11-27T03:34:01.663Z,17.92
2018-11-27T03:35:01.414Z,17.9
2018-11-27T03:36:01.210Z,17.9
2018-11-27T03:37:01.497Z,17.92
2018-11-27T03:38:01.278Z,17.91
2018-11-27T03:39:01.381Z,17.91
2018-11-27T03:40:01.288Z,17.91
2018-11-27T03:41:01.301Z,17.93
2018-11-27T03:42:01.767Z,17.9
2018-11-27T03:43:01.495Z,17.91
2018-11-27T03:44:01.409Z,17.91
2018-11-27T03:45:01.267Z,17.9
2018-11-27T03:46:01.720Z,17.89
2018-11-27T03:47:01.264Z,17.89
2018-11-27T03:48:01.838Z,17.9
2018-11-27T03:49:01.402Z,17.88
2018-11-27T03:50:01.442Z,17.88
2018-11-27T03:51:01.819Z,17.9
2018-11-27T03:52:01.223Z,17.88
2018-11-27T03:53:01.397Z,17.9
2018-11-27T03:54:01.198Z,17.9
2018-11-27T03:55:01.327Z,17.9
2018-11-27T03:56:01.294Z,17.89
2018-11-27T03:57:01.307Z,17.89
2018-11-27T03:58:01.710Z,17.88
2018-11-27T03:59:01.402Z,17.88
2018-11-27T04:00:01.473Z,17.9
2018-11-27T04:01:01.181Z,17.88
2018-11-27T04:02:01.363Z,17.88
2018-11-27T04:03:01.485Z,17.88
2018-11-27T04:04:01.233Z,17.88
2018-11-27T04:05:01.414Z,17.88
2018-11-27T04:06:01.365Z,17.85
2018-11-27T04:07:01.334Z,17.88
2018-11-27T04:08:01.271Z,17.88
2018-11-27T04:09:01.393Z,17.88
2018-11-27T04:10:01.195Z,17.88
2018-11-27T04:11:01.249Z,17.85
2018-11-27T04:12:01.138Z,17.88
2018-11-27T04:13:01.342Z,17.83
2018-11-27T04:14:01.400Z,17.83
2018-11-27T04:15:01.364Z,17.85
2018-11-27T04:16:01.629Z,17.87
2018-11-27T04:17:01.853Z,17.85
2018-11-27T04:18:01.335Z,17.85
2018-11-27T04:19:01.162Z,17.87
2018-11-27T04:20:01.789Z,17.85
2018-11-27T04:21:01.524Z,17.84
2018-11-27T04:22:01.681Z,17.83
2018-11-27T04:23:01.464Z,17.84
2018-11-27T04:24:01.414Z,17.87
2018-11-27T04:25:01.492Z,17.84
2018-11-27T04:26:01.534Z,17.84
2018-11-27T04:27:02.106Z,17.83
2018-11-27T04:28:01.783Z,17.83
2018-11-27T04:29:01.616Z,17.83
2018-11-27T04:30:01.362Z,17.83
2018-11-27T04:31:01.503Z,17.84
2018-11-27T04:32:01.388Z,17.81
2018-11-27T04:33:01.337Z,17.83
2018-11-27T04:34:01.386Z,17.83
2018-11-27T04:35:01.730Z,17.84
2018-11-27T04:36:01.157Z,17.83
2018-11-27T04:37:01.193Z,17.82
2018-11-27T04:38:01.528Z,17.84
2018-11-27T04:39:01.703Z,17.83
2018-11-27T04:40:01.402Z,17.84
2018-11-27T04:41:01.215Z,17.84
2018-11-27T04:42:01.329Z,17.85
2018-11-27T04:43:01.326Z,17.83
2018-11-27T04:44:01.498Z,17.84
2018-11-27T04:45:01.451Z,17.83
2018-11-27T04:46:01.412Z,17.85
2018-11-27T04:47:01.823Z,17.85
2018-11-27T04:48:01.754Z,17.85
2018-11-27T04:49:01.717Z,17.85
2018-11-27T04:50:01.234Z,17.88
2018-11-27T04:51:01.239Z,17.87
2018-11-27T04:52:01.735Z,17.89
2018-11-27T04:53:01.607Z,17.87
2018-11-27T04:54:01.984Z,17.89
2018-11-27T04:55:01.256Z,17.91
2018-11-27T04:56:01.784Z,17.9
2018-11-27T04:57:01.513Z,17.9
2018-11-27T04:58:01.723Z,17.91
2018-11-27T04:59:01.178Z,17.93
2018-11-27T05:00:01.382Z,17.94
2018-11-27T05:01:01.677Z,17.92
2018-11-27T05:02:01.331Z,17.95
2018-11-27T05:03:02.227Z,17.96
2018-11-27T05:04:01.207Z,17.96
2018-11-27T05:05:01.375Z,17.99
2018-11-27T05:06:01.052Z,18
2018-11-27T05:07:01.797Z,18.03
2018-11-27T05:08:01.333Z,18.04
2018-11-27T05:09:01.621Z,18.05
2018-11-27T05:10:01.409Z,18.08
2018-11-27T05:11:01.227Z,18.06
2018-11-27T05:12:01.353Z,18.1
2018-11-27T05:13:01.318Z,18.1
2018-11-27T05:14:01.632Z,18.12
2018-11-27T05:15:01.751Z,18.12
2018-11-27T05:16:01.284Z,18.14
2018-11-27T05:17:01.249Z,18.14
2018-11-27T05:18:01.754Z,18.18
2018-11-27T05:19:01.759Z,18.18
2018-11-27T05:20:01.811Z,18.21
2018-11-27T05:21:02.321Z,18.21
2018-11-27T05:22:01.726Z,18.25
2018-11-27T05:23:01.633Z,18.25
2018-11-27T05:24:01.767Z,18.24
2018-11-27T05:25:01.348Z,18.26
2018-11-27T05:26:01.272Z,18.28
2018-11-27T05:27:01.568Z,18.28
2018-11-27T05:28:01.413Z,18.29
2018-11-27T05:29:01.662Z,18.33
2018-11-27T05:30:01.444Z,18.33
2018-11-27T05:31:01.266Z,18.34
2018-11-27T05:32:01.373Z,18.35
2018-11-27T05:33:01.371Z,18.37
2018-11-27T05:34:01.559Z,18.37
2018-11-27T05:35:01.199Z,18.38
2018-11-27T05:36:01.807Z,18.38
2018-11-27T05:37:01.392Z,18.39
2018-11-27T05:38:01.319Z,18.38
2018-11-27T05:39:01.410Z,18.41
2018-11-27T05:40:01.481Z,18.42
2018-11-27T05:41:01.253Z,18.41
2018-11-27T05:42:01.172Z,18.43
2018-11-27T05:43:01.593Z,18.43
2018-11-27T05:44:01.285Z,18.43
2018-11-27T05:45:01.147Z,18.46
2018-11-27T05:46:01.557Z,18.46
2018-11-27T05:47:01.285Z,18.44
2018-11-27T05:48:01.382Z,18.48
2018-11-27T05:49:01.265Z,18.47
2018-11-27T05:50:01.284Z,18.5
2018-11-27T05:51:01.181Z,18.49
2018-11-27T05:52:01.898Z,18.47
2018-11-27T05:53:01.153Z,18.49
2018-11-27T05:54:01.596Z,18.49
2018-11-27T05:55:01.434Z,18.49
2018-11-27T05:56:01.223Z,18.51
2018-11-27T05:57:01.424Z,18.52
2018-11-27T05:58:01.515Z,18.51
2018-11-27T05:59:01.571Z,18.5
2018-11-27T06:00:01.592Z,18.48
2018-11-27T06:01:01.855Z,18.51
2018-11-27T06:02:01.427Z,18.51
2018-11-27T06:03:01.733Z,18.52
2018-11-27T06:04:01.423Z,18.52
2018-11-27T06:05:01.665Z,18.51
2018-11-27T06:06:01.380Z,18.53
2018-11-27T06:07:01.537Z,18.52
2018-11-27T06:08:01.456Z,18.52
2018-11-27T06:09:01.705Z,18.52
2018-11-27T06:10:01.500Z,18.52
2018-11-27T06:11:01.387Z,18.51
2018-11-27T06:12:01.322Z,18.51
2018-11-27T06:13:01.461Z,18.52
2018-11-27T06:14:01.438Z,18.51
2018-11-27T06:15:01.255Z,18.51
2018-11-27T06:16:02.391Z,18.52
2018-11-27T06:17:01.356Z,18.51
2018-11-27T06:18:01.213Z,18.52
2018-11-27T06:19:01.354Z,18.52
2018-11-27T06:20:01.378Z,18.5
2018-11-27T06:21:01.144Z,18.51
2018-11-27T06:22:01.331Z,18.52
2018-11-27T06:23:01.420Z,18.52
2018-11-27T06:24:01.334Z,18.51
2018-11-27T06:25:01.057Z,18.53
2018-11-27T06:26:01.290Z,18.51
2018-11-27T06:27:01.401Z,18.51
2018-11-27T06:28:01.156Z,18.49
2018-11-27T06:29:01.317Z,18.51
2018-11-27T06:30:01.423Z,18.51
2018-11-27T06:31:01.368Z,18.49
2018-11-27T06:32:01.533Z,18.49
2018-11-27T06:33:01.732Z,18.49
2018-11-27T06:34:01.581Z,18.48
2018-11-27T06:35:01.378Z,18.46
2018-11-27T06:36:01.670Z,18.46
2018-11-27T06:37:01.389Z,18.48
2018-11-27T06:38:01.388Z,18.47
2018-11-27T06:39:01.271Z,18.48
2018-11-27T06:40:01.383Z,18.46
2018-11-27T06:41:01.131Z,18.48
2018-11-27T06:42:01.809Z,18.46
2018-11-27T06:43:01.057Z,18.48
2018-11-27T06:44:01.505Z,18.46
2018-11-27T06:45:01.787Z,18.46
2018-11-27T06:46:01.127Z,18.44
2018-11-27T06:47:01.351Z,18.44
2018-11-27T06:48:01.221Z,18.43
2018-11-27T06:49:01.330Z,18.41
2018-11-27T06:50:01.177Z,18.43
2018-11-27T06:51:01.317Z,18.44
2018-11-27T06:52:01.087Z,18.44
2018-11-27T06:53:01.247Z,18.41
2018-11-27T06:54:01.556Z,18.42
2018-11-27T06:55:01.473Z,18.42
2018-11-27T06:56:01.730Z,18.41
2018-11-27T06:57:01.452Z,18.42
2018-11-27T06:58:01.526Z,18.41
2018-11-27T06:59:01.570Z,18.41
2018-11-27T07:00:01.473Z,18.43
2018-11-27T07:01:01.417Z,18.42
2018-11-27T07:02:01.155Z,18.42
2018-11-27T07:03:01.780Z,18.41
2018-11-27T07:04:01.348Z,18.4
2018-11-27T07:05:01.445Z,18.4
2018-11-27T07:06:01.142Z,18.4
2018-11-27T07:07:01.233Z,18.39
2018-11-27T07:08:01.771Z,18.4
2018-11-27T07:09:01.290Z,18.4
2018-11-27T07:10:01.352Z,18.4
2018-11-27T07:11:01.573Z,18.4
2018-11-27T07:12:01.150Z,18.4
2018-11-27T07:13:01.692Z,18.41
2018-11-27T07:14:01.474Z,18.41
2018-11-27T07:15:01.237Z,18.4
2018-11-27T07:16:01.226Z,18.39
2018-11-27T07:17:01.299Z,18.4
2018-11-27T07:18:01.174Z,18.4
2018-11-27T07:19:01.320Z,18.41
2018-11-27T07:20:01.199Z,18.38
2018-11-27T07:21:01.165Z,18.41
2018-11-27T07:22:01.214Z,18.4
2018-11-27T07:23:01.299Z,18.39
2018-11-27T07:24:01.259Z,18.41
2018-11-27T07:25:01.343Z,18.39
2018-11-27T07:26:01.321Z,18.43
2018-11-27T07:27:01.077Z,18.44
2018-11-27T07:28:01.159Z,18.43
2018-11-27T07:29:01.156Z,18.41
2018-11-27T07:30:01.565Z,18.42
2018-11-27T07:31:02.220Z,18.43
2018-11-27T07:32:01.404Z,18.44
2018-11-27T07:33:01.518Z,18.44
2018-11-27T07:34:01.378Z,18.46
2018-11-27T07:35:01.875Z,18.47
2018-11-27T07:36:01.436Z,18.46
2018-11-27T07:37:01.514Z,18.48
2018-11-27T07:38:02.264Z,18.46
2018-11-27T07:39:01.278Z,18.5
2018-11-27T07:40:03.567Z,18.49
2018-11-27T07:41:01.152Z,18.49
2018-11-27T07:42:01.208Z,18.5
2018-11-27T07:43:01.253Z,18.5
2018-11-27T07:44:01.431Z,18.51
2018-11-27T07:45:01.911Z,18.51
2018-11-27T07:46:01.481Z,18.52
2018-11-27T07:47:01.593Z,18.53
2018-11-27T07:48:01.823Z,18.53
2018-11-27T07:49:01.997Z,18.53
2018-11-27T07:50:01.282Z,18.54
2018-11-27T07:51:01.537Z,18.55
2018-11-27T07:52:01.417Z,18.55
2018-11-27T07:53:01.304Z,18.54
2018-11-27T07:54:01.305Z,18.56
2018-11-27T07:55:01.256Z,18.57
2018-11-27T07:56:01.798Z,18.59
2018-11-27T07:57:01.186Z,18.61
2018-11-27T07:58:01.423Z,18.62
2018-11-27T07:59:01.317Z,18.57
2018-11-27T08:00:01.187Z,18.62
2018-11-27T08:01:01.976Z,18.61
2018-11-27T08:02:01.381Z,18.63
2018-11-27T08:03:01.026Z,18.63
2018-11-27T08:04:01.413Z,18.64
2018-11-27T08:05:01.302Z,18.63
2018-11-27T08:06:01.307Z,18.65
2018-11-27T08:07:01.834Z,18.66
2018-11-27T08:08:01.104Z,18.66
2018-11-27T08:09:01.228Z,18.66
2018-11-27T08:10:01.673Z,18.67
2018-11-27T08:11:01.265Z,18.67
2018-11-27T08:12:01.193Z,18.69
2018-11-27T08:13:01.257Z,18.69
2018-11-27T08:14:01.359Z,18.68
2018-11-27T08:15:01.179Z,18.69
2018-11-27T08:16:01.276Z,18.69
2018-11-27T08:17:01.417Z,18.71
2018-11-27T08:18:01.339Z,18.69
2018-11-27T08:19:01.390Z,18.72
2018-11-27T08:20:01.636Z,18.72
2018-11-27T08:21:01.330Z,18.73
2018-11-27T08:22:01.670Z,18.72
2018-11-27T08:23:01.364Z,18.73
2018-11-27T08:24:01.463Z,18.72
2018-11-27T08:25:01.057Z,18.74
2018-11-27T08:26:01.188Z,18.73
2018-11-27T08:27:01.290Z,18.74
2018-11-27T08:28:01.770Z,18.74
2018-11-27T08:29:01.502Z,18.74
2018-11-27T08:30:01.297Z,18.73
2018-11-27T08:31:01.154Z,18.77
2018-11-27T08:32:01.420Z,18.76
2018-11-27T08:33:01.423Z,18.78
2018-11-27T08:34:01.674Z,18.76
2018-11-27T08:35:01.640Z,18.76
2018-11-27T08:36:01.751Z,18.76
2018-11-27T08:37:01.226Z,18.77
2018-11-27T08:38:01.432Z,18.76
2018-11-27T08:39:01.582Z,18.77
2018-11-27T08:40:01.374Z,18.76
2018-11-27T08:41:01.357Z,18.76
2018-11-27T08:42:01.375Z,18.78
2018-11-27T08:43:01.143Z,18.77
2018-11-27T08:44:01.287Z,18.77
2018-11-27T08:45:01.298Z,18.78
2018-11-27T08:46:01.358Z,18.77
2018-11-27T08:47:01.180Z,18.79
2018-11-27T08:48:01.602Z,18.78
2018-11-27T08:49:01.093Z,18.79
2018-11-27T08:50:01.226Z,18.78
2018-11-27T08:51:01.169Z,18.77
2018-11-27T08:52:01.180Z,18.77
2018-11-27T08:53:01.335Z,18.77
2018-11-27T08:54:01.092Z,18.77
2018-11-27T08:55:02.116Z,18.78
2018-11-27T08:56:01.330Z,18.78
2018-11-27T08:57:01.400Z,18.78
2018-11-27T08:58:01.169Z,18.77
2018-11-27T08:59:01.164Z,18.77
2018-11-27T09:00:01.276Z,18.77
2018-11-27T09:01:01.212Z,18.77
2018-11-27T09:02:01.287Z,18.76
2018-11-27T09:03:01.139Z,18.76
2018-11-27T09:04:01.275Z,18.74
2018-11-27T09:05:01.159Z,18.74
2018-11-27T09:06:01.127Z,18.76
2018-11-27T09:07:01.338Z,18.71
2018-11-27T09:08:01.148Z,18.72
2018-11-27T09:09:01.342Z,18.73
2018-11-27T09:10:01.442Z,18.72
2018-11-27T09:11:01.546Z,18.72
2018-11-27T09:12:01.094Z,18.72
2018-11-27T09:13:02.272Z,18.72
2018-11-27T09:14:01.739Z,18.7
2018-11-27T09:15:01.629Z,18.7
2018-11-27T09:16:01.485Z,18.69
2018-11-27T09:17:01.179Z,18.68
2018-11-27T09:18:01.540Z,18.69
2018-11-27T09:19:01.034Z,18.69
2018-11-27T09:20:01.486Z,18.69
2018-11-27T09:21:01.316Z,18.69
2018-11-27T09:22:02.007Z,18.69
2018-11-27T09:23:01.209Z,18.68
2018-11-27T09:24:01.187Z,18.68
2018-11-27T09:25:01.654Z,18.66
2018-11-27T09:26:00.974Z,18.67
2018-11-27T09:27:01.230Z,18.66
2018-11-27T09:28:01.792Z,18.68
2018-11-27T09:29:01.249Z,18.66
2018-11-27T09:30:01.366Z,18.67
2018-11-27T09:31:01.315Z,18.67
2018-11-27T09:32:01.665Z,18.66
2018-11-27T09:33:01.381Z,18.65
2018-11-27T09:34:01.512Z,18.65
2018-11-27T09:35:01.256Z,18.67
2018-11-27T09:36:01.476Z,18.65
2018-11-27T09:37:01.428Z,18.64
2018-11-27T09:38:01.123Z,18.64
2018-11-27T09:39:01.482Z,18.66
2018-11-27T09:40:01.160Z,18.65
2018-11-27T09:41:01.786Z,18.64
2018-11-27T09:42:01.070Z,18.64
2018-11-27T09:43:01.124Z,18.61
2018-11-27T09:44:01.145Z,18.62
2018-11-27T09:45:01.592Z,18.63
2018-11-27T09:46:01.282Z,18.63
2018-11-27T09:47:01.141Z,18.63
2018-11-27T09:48:01.387Z,18.62
2018-11-27T09:49:01.533Z,18.62
2018-11-27T09:50:01.680Z,18.62
2018-11-27T09:51:01.005Z,18.59
2018-11-27T09:52:01.452Z,18.62
2018-11-27T09:53:01.320Z,18.61
2018-11-27T09:54:01.160Z,18.62
2018-11-27T09:55:01.580Z,18.62
2018-11-27T09:56:01.385Z,18.61
2018-11-27T09:57:01.258Z,18.62
2018-11-27T09:58:01.048Z,18.61
2018-11-27T09:59:01.227Z,18.62
2018-11-27T10:00:01.404Z,18.61
2018-11-27T10:01:01.227Z,18.61
2018-11-27T10:02:01.387Z,18.61
2018-11-27T10:03:01.179Z,18.62
2018-11-27T10:04:01.287Z,18.62
2018-11-27T10:05:01.284Z,18.61
2018-11-27T10:06:01.558Z,18.59
2018-11-27T10:07:01.347Z,18.61
2018-11-27T10:08:01.229Z,18.58
2018-11-27T10:09:01.069Z,18.59
2018-11-27T10:10:01.200Z,18.58
2018-11-27T10:11:01.363Z,18.62
2018-11-27T10:12:01.436Z,18.61
2018-11-27T10:13:01.284Z,18.58
2018-11-27T10:14:01.736Z,18.61
2018-11-27T10:15:01.435Z,18.58
2018-11-27T10:16:01.319Z,18.57
2018-11-27T10:17:01.155Z,18.59
2018-11-27T10:18:01.361Z,18.61
2018-11-27T10:19:01.322Z,18.59
2018-11-27T10:20:01.684Z,18.58
2018-11-27T10:21:01.078Z,18.58
2018-11-27T10:22:01.261Z,18.61
2018-11-27T10:23:01.074Z,18.59
2018-11-27T10:24:01.131Z,18.58
2018-11-27T10:25:00.985Z,18.61
2018-11-27T10:26:01.203Z,18.57
2018-11-27T10:27:01.446Z,18.59
2018-11-27T10:28:01.402Z,18.57
2018-11-27T10:29:01.186Z,18.59
2018-11-27T10:30:01.078Z,18.58
2018-11-27T10:31:01.237Z,18.58
2018-11-27T10:32:01.099Z,18.62
2018-11-27T10:33:01.385Z,18.57
2018-11-27T10:34:01.063Z,18.57
2018-11-27T10:35:01.411Z,18.56
2018-11-27T10:36:01.185Z,18.59
2018-11-27T10:37:01.096Z,18.59
2018-11-27T10:38:01.281Z,18.58
2018-11-27T10:39:01.266Z,18.61
2018-11-27T10:40:01.004Z,18.59
2018-11-27T10:41:01.022Z,18.57
2018-11-27T10:42:01.322Z,18.57
2018-11-27T10:43:01.228Z,18.59
2018-11-27T10:44:01.152Z,18.57
2018-11-27T10:45:02.387Z,18.61
2018-11-27T10:46:01.032Z,18.59
2018-11-27T10:47:01.151Z,18.56
2018-11-27T10:48:01.373Z,18.61
2018-11-27T10:49:01.129Z,18.61
2018-11-27T10:50:01.015Z,18.61
2018-11-27T10:51:01.065Z,18.59
2018-11-27T10:52:01.800Z,18.61
2018-11-27T10:53:01.828Z,18.59
2018-11-27T10:54:01.357Z,18.61
2018-11-27T10:55:01.405Z,18.61
2018-11-27T10:56:01.435Z,18.61
2018-11-27T10:57:01.045Z,18.59
2018-11-27T10:58:01.517Z,18.59
2018-11-27T10:59:01.344Z,18.58
2018-11-27T11:00:01.834Z,18.58
2018-11-27T11:01:01.183Z,18.62
2018-11-27T11:02:01.156Z,18.62
2018-11-27T11:03:01.160Z,18.57
2018-11-27T11:04:00.982Z,18.61
2018-11-27T11:05:01.164Z,18.59
2018-11-27T11:06:01.291Z,18.62
2018-11-27T11:07:01.054Z,18.61
2018-11-27T11:08:01.526Z,18.61
2018-11-27T11:09:00.989Z,18.62
2018-11-27T11:10:01.360Z,18.62
2018-11-27T11:11:01.050Z,18.62
2018-11-27T11:12:01.447Z,18.62
2018-11-27T11:13:01.340Z,18.64
2018-11-27T11:14:01.457Z,18.63
2018-11-27T11:15:01.538Z,18.62
2018-11-27T11:16:01.364Z,18.63
2018-11-27T11:17:01.285Z,18.64
2018-11-27T11:18:01.063Z,18.62
2018-11-27T11:19:01.843Z,18.66
2018-11-27T11:20:01.509Z,18.66
2018-11-27T11:21:01.055Z,18.65
2018-11-27T11:22:01.448Z,18.65
2018-11-27T11:23:01.038Z,18.66
2018-11-27T11:24:01.101Z,18.66
2018-11-27T11:25:00.952Z,18.66
2018-11-27T11:26:01.185Z,18.65
2018-11-27T11:27:01.179Z,18.67
2018-11-27T11:28:01.319Z,18.69
2018-11-27T11:29:01.305Z,18.66
2018-11-27T11:30:01.070Z,18.67
2018-11-27T11:31:01.212Z,18.65
2018-11-27T11:32:00.968Z,18.67
2018-11-27T11:33:01.129Z,18.67
2018-11-27T11:34:01.383Z,18.66
2018-11-27T11:35:01.575Z,18.67
2018-11-27T11:36:01.287Z,18.67
2018-11-27T11:37:01.404Z,18.66
2018-11-27T11:38:01.657Z,18.66
2018-11-27T11:39:01.291Z,18.67
2018-11-27T11:40:01.270Z,18.65
2018-11-27T11:41:01.244Z,18.66
2018-11-27T11:42:01.544Z,18.64
2018-11-27T11:43:02.075Z,18.66
2018-11-27T11:44:01.161Z,18.64
2018-11-27T11:45:00.914Z,18.66
2018-11-27T11:46:01.059Z,18.66
2018-11-27T11:47:01.428Z,18.66
2018-11-27T11:48:01.021Z,18.65
2018-11-27T11:49:02.113Z,18.66
2018-11-27T11:50:01.208Z,18.64
2018-11-27T11:51:01.818Z,18.63
2018-11-27T11:52:01.283Z,18.65
2018-11-27T11:53:01.384Z,18.65
2018-11-27T11:54:01.616Z,18.64
2018-11-27T11:55:00.980Z,18.65
2018-11-27T11:56:01.335Z,18.64
2018-11-27T11:57:01.351Z,18.64
2018-11-27T11:58:01.086Z,18.63
2018-11-27T11:59:00.966Z,18.63
2018-11-27T12:00:01.087Z,18.64
2018-11-27T12:01:01.258Z,18.64
2018-11-27T12:02:01.113Z,18.64
2018-11-27T12:03:01.192Z,18.64
2018-11-27T12:04:01.074Z,18.63
2018-11-27T12:05:00.957Z,18.63
2018-11-27T12:06:01.093Z,18.64
2018-11-27T12:07:01.193Z,18.65
2018-11-27T12:08:01.148Z,18.63
2018-11-27T12:09:01.133Z,18.63
2018-11-27T12:10:01.248Z,18.64
2018-11-27T12:11:01.148Z,18.62
2018-11-27T12:12:01.047Z,18.62
2018-11-27T12:13:01.101Z,18.62
2018-11-27T12:14:01.022Z,18.62
2018-11-27T12:15:01.500Z,18.63
2018-11-27T12:16:01.231Z,18.63
2018-11-27T12:17:01.382Z,18.62
2018-11-27T12:18:01.147Z,18.62
2018-11-27T12:19:01.095Z,18.62
2018-11-27T12:20:01.075Z,18.63
2018-11-27T12:21:01.152Z,18.62
2018-11-27T12:22:01.295Z,18.61
2018-11-27T12:23:01.309Z,18.61
2018-11-27T12:24:01.294Z,18.61
2018-11-27T12:25:01.127Z,18.62
2018-11-27T12:26:01.565Z,18.61
2018-11-27T12:27:01.069Z,18.61
2018-11-27T12:28:01.270Z,18.63
2018-11-27T12:29:01.078Z,18.61
2018-11-27T12:30:01.174Z,18.61
2018-11-27T12:31:00.947Z,18.61
2018-11-27T12:32:00.991Z,18.59
2018-11-27T12:33:02.243Z,18.62
2018-11-27T12:34:01.145Z,18.61
2018-11-27T12:35:01.272Z,18.61
2018-11-27T12:36:01.397Z,18.64
2018-11-27T12:37:01.095Z,18.61
2018-11-27T12:38:00.952Z,18.61
2018-11-27T12:39:01.334Z,18.59
2018-11-27T12:40:00.983Z,18.59
2018-11-27T12:41:00.973Z,18.61
2018-11-27T12:42:01.083Z,18.58
2018-11-27T12:43:01.243Z,18.61
2018-11-27T12:44:01.199Z,18.61
2018-11-27T12:45:01.287Z,18.62
2018-11-27T12:46:01.151Z,18.61
2018-11-27T12:47:01.354Z,18.61
2018-11-27T12:48:01.433Z,18.62
2018-11-27T12:49:01.396Z,18.58
2018-11-27T12:50:01.329Z,18.61
2018-11-27T12:51:01.234Z,18.61
2018-11-27T12:52:01.302Z,18.58
2018-11-27T12:53:01.236Z,18.59
2018-11-27T12:54:01.373Z,18.61